createdAt,value
2018-03-23T00:00:06.092Z,30.05
2018-03-23T00:02:33.496Z,30.80
2018-03-23T00:05:00.916Z,32.33
2018-03-23T00:07:28.378Z,29.63
2018-03-23T00:09:55.727Z,29.90
2018-03-23T00:12:23.152Z,30.02
2018-03-23T00:14:50.558Z,29.23
2018-03-23T00:17:17.960Z,28.20
2018-03-23T00:19:45.385Z,28.65
2018-03-23T00:22:12.791Z,29.67
2018-03-23T00:24:40.197Z,30.27
2018-03-23T00:27:07.617Z,29.20
2018-03-23T00:29:35.024Z,29.90
2018-03-23T00:32:02.429Z,30.00
2018-03-23T00:34:29.852Z,31.45
2018-03-23T00:36:57.257Z,30.42
2018-03-23T00:39:24.663Z,31.58
2018-03-23T00:41:52.086Z,31.08
2018-03-23T00:44:19.484Z,31.92
2018-03-23T00:46:46.896Z,30.27
2018-03-23T00:49:14.316Z,30.08
2018-03-23T00:51:41.724Z,31.90
2018-03-23T00:54:09.131Z,31.85
2018-03-23T00:56:36.561Z,28.60
2018-03-23T00:59:03.970Z,30.40
2018-03-23T01:01:31.376Z,30.35
2018-03-23T01:03:58.797Z,31.37
2018-03-23T01:06:26.202Z,31.37
2018-03-23T01:08:53.604Z,30.42
2018-03-23T01:11:21.081Z,32.05
2018-03-23T01:13:48.441Z,32.40
2018-03-23T01:16:15.857Z,31.73
2018-03-23T01:18:43.276Z,31.12
2018-03-23T01:21:10.688Z,32.90
2018-03-23T01:23:38.085Z,33.05
2018-03-23T01:26:05.510Z,33.22
2018-03-23T01:28:32.916Z,31.27
2018-03-23T01:31:00.320Z,32.72
2018-03-23T01:33:27.744Z,33.80
2018-03-23T01:35:55.148Z,34.30
2018-03-23T01:38:22.551Z,34.58
2018-03-23T01:40:49.968Z,35.92
2018-03-23T01:43:17.368Z,36.42
2018-03-23T01:45:44.771Z,38.45
2018-03-23T01:48:12.200Z,37.58
2018-03-23T01:50:39.618Z,40.90
2018-03-23T01:53:07.020Z,38.05
2018-03-23T01:55:34.443Z,37.10
2018-03-23T01:58:01.849Z,37.20
2018-03-23T02:00:29.253Z,35.58
2018-03-23T02:02:56.669Z,37.42
2018-03-23T02:05:24.081Z,39.17
2018-03-23T02:07:51.488Z,37.60
2018-03-23T02:10:18.910Z,38.33
2018-03-23T02:12:46.299Z,37.88
2018-03-23T02:15:13.699Z,35.17
2018-03-23T02:17:41.112Z,36.85
2018-03-23T02:20:08.507Z,35.28
2018-03-23T02:22:35.898Z,36.30
2018-03-23T02:25:03.318Z,35.17
2018-03-23T02:27:30.707Z,38.53
2018-03-23T02:29:58.107Z,36.95
2018-03-23T02:32:25.524Z,35.15
2018-03-23T02:34:52.927Z,36.85
2018-03-23T02:37:20.328Z,38.33
2018-03-23T02:39:47.740Z,35.75
2018-03-23T02:42:15.145Z,36.70
2018-03-23T02:44:42.550Z,36.40
2018-03-23T02:47:09.976Z,35.35
2018-03-23T02:49:37.379Z,37.58
2018-03-23T02:52:04.775Z,38.30
2018-03-23T02:54:32.196Z,36.58
2018-03-23T02:56:59.603Z,36.47
2018-03-23T02:59:27.004Z,34.25
2018-03-23T03:01:54.422Z,38.67
2018-03-23T03:04:21.828Z,39.20
2018-03-23T03:06:49.232Z,37.28
2018-03-23T03:09:16.656Z,38.38
2018-03-23T03:11:44.062Z,38.55
2018-03-23T03:14:11.464Z,40.83
2018-03-23T03:16:38.883Z,37.88
2018-03-23T03:19:06.283Z,38.88
2018-03-23T03:21:33.690Z,40.30
2018-03-23T03:24:01.115Z,37.45
2018-03-23T03:26:28.519Z,36.55
2018-03-23T03:28:56.022Z,38.42
2018-03-23T03:31:23.440Z,36.30
2018-03-23T03:33:50.854Z,38.50
2018-03-23T03:36:18.591Z,38.30
2018-03-23T03:38:46.004Z,38.22
2018-03-23T03:41:13.407Z,38.60
2018-03-23T03:43:40.807Z,38.78
2018-03-23T03:46:08.263Z,40.50
2018-03-23T03:48:35.667Z,38.40
2018-03-23T03:51:03.072Z,38.45
2018-03-23T03:53:30.503Z,39.95
2018-03-23T03:55:57.907Z,39.03
2018-03-23T03:58:25.431Z,41.37
2018-03-23T04:00:52.856Z,37.90
2018-03-23T04:03:20.252Z,37.20
2018-03-23T04:05:47.743Z,37.67
2018-03-23T04:08:15.159Z,37.92
2018-03-23T04:10:42.567Z,38.55
2018-03-23T04:13:09.971Z,39.05
2018-03-23T04:15:37.383Z,39.20
2018-03-23T04:18:04.787Z,38.25
2018-03-23T04:20:32.222Z,36.45
2018-03-23T04:22:59.634Z,36.10
2018-03-23T04:25:27.031Z,37.65
2018-03-23T04:27:54.460Z,37.67
2018-03-23T04:30:21.842Z,39.88
2018-03-23T04:32:49.247Z,37.67
2018-03-23T04:35:16.647Z,35.22
2018-03-23T04:37:44.065Z,36.05
2018-03-23T04:40:11.463Z,34.80
2018-03-23T04:42:38.858Z,36.80
2018-03-23T04:45:06.304Z,35.17
2018-03-23T04:47:33.730Z,36.03
2018-03-23T04:50:01.149Z,35.60
2018-03-23T04:52:28.577Z,34.75
2018-03-23T04:54:55.979Z,35.28
2018-03-23T04:57:23.383Z,36.55
2018-03-23T04:59:50.816Z,39.42
2018-03-23T05:02:18.215Z,37.88
2018-03-23T05:04:45.677Z,37.60
2018-03-23T05:07:13.096Z,36.17
2018-03-23T05:09:40.495Z,36.33
2018-03-23T05:12:07.899Z,35.80
2018-03-23T05:14:35.326Z,33.95
2018-03-23T05:17:02.750Z,33.30
2018-03-23T05:19:30.142Z,33.58
2018-03-23T05:21:57.595Z,34.25
2018-03-23T05:24:25.009Z,32.80
2018-03-23T05:26:52.408Z,31.48
2018-03-23T05:29:19.963Z,31.60
2018-03-23T05:31:47.372Z,30.73
2018-03-23T05:34:14.780Z,32.20
2018-03-23T05:36:42.198Z,34.65
2018-03-23T05:39:09.608Z,36.15
2018-03-23T05:41:37.012Z,34.97
2018-03-23T05:44:04.434Z,38.75
2018-03-23T05:46:31.832Z,36.63
2018-03-23T05:48:59.236Z,36.80
2018-03-23T05:51:27.480Z,36.67
2018-03-23T05:53:54.883Z,38.35
2018-03-23T05:56:22.278Z,35.30
2018-03-23T05:58:49.700Z,33.55
2018-03-23T06:01:17.204Z,36.80
2018-03-23T06:03:44.603Z,36.20
2018-03-23T06:06:12.023Z,34.55
2018-03-23T06:08:39.424Z,36.70
2018-03-23T06:11:06.830Z,35.70
2018-03-23T06:13:34.240Z,35.80
2018-03-23T06:16:01.647Z,33.15
2018-03-23T06:18:29.047Z,33.25
2018-03-23T06:20:56.463Z,33.47
2018-03-23T06:23:23.863Z,33.60
2018-03-23T06:25:51.261Z,34.70
2018-03-23T06:28:18.679Z,35.00
2018-03-23T06:30:46.071Z,34.58
2018-03-23T06:33:13.471Z,33.65
2018-03-23T06:35:40.888Z,34.92
2018-03-23T06:38:08.296Z,33.55
2018-03-23T06:40:35.695Z,32.67
2018-03-23T06:43:03.136Z,33.65
2018-03-23T06:45:30.527Z,35.17
2018-03-23T06:47:57.938Z,34.15
2018-03-23T06:50:25.351Z,33.50
2018-03-23T06:52:52.784Z,31.40
2018-03-23T06:55:20.183Z,31.10
2018-03-23T06:57:47.611Z,32.10
2018-03-23T07:00:15.015Z,31.90
2018-03-23T07:02:42.431Z,32.27
2018-03-23T07:05:09.839Z,33.27
2018-03-23T07:07:37.280Z,29.83
2018-03-23T07:10:04.680Z,29.83
2018-03-23T07:12:32.100Z,31.23
2018-03-23T07:14:59.526Z,31.35
2018-03-23T07:17:26.927Z,30.98
2018-03-23T07:19:54.339Z,30.13
2018-03-23T07:22:21.732Z,28.80
2018-03-23T07:24:49.136Z,29.00
2018-03-23T07:27:16.543Z,28.73
2018-03-23T07:29:43.980Z,31.20
2018-03-23T07:32:11.368Z,28.90
2018-03-23T07:34:38.779Z,29.03
2018-03-23T07:37:06.171Z,29.83
2018-03-23T07:39:33.563Z,28.93
2018-03-23T07:42:00.976Z,28.00
2018-03-23T07:44:28.379Z,30.67
2018-03-23T07:46:55.792Z,28.87
2018-03-23T07:49:23.206Z,29.20
2018-03-23T07:51:50.591Z,29.33
2018-03-23T07:54:17.987Z,27.40
2018-03-23T07:56:45.392Z,29.93
2018-03-23T07:59:12.790Z,29.67
2018-03-23T08:01:40.188Z,26.27
2018-03-23T08:04:07.595Z,24.53
2018-03-23T08:06:34.988Z,23.93
2018-03-23T08:09:02.404Z,25.83
2018-03-23T08:11:29.810Z,22.60
2018-03-23T08:13:57.200Z,20.10
2018-03-23T08:16:24.595Z,21.70
2018-03-23T08:18:52.002Z,22.67
2018-03-23T08:21:19.396Z,21.90
2018-03-23T08:23:46.785Z,20.70
2018-03-23T08:26:14.191Z,20.83
2018-03-23T08:28:41.583Z,20.67
2018-03-23T08:31:09.105Z,20.00
2018-03-23T08:33:36.519Z,18.80
2018-03-23T08:36:03.906Z,18.57
2018-03-23T08:38:31.304Z,16.73
2018-03-23T08:40:58.715Z,20.70
2018-03-23T08:43:26.114Z,16.03
2018-03-23T08:45:53.495Z,13.23
2018-03-23T08:48:20.904Z,13.07
2018-03-23T08:50:48.291Z,12.87
2018-03-23T08:53:15.684Z,12.97
2018-03-23T08:55:43.283Z,14.17
2018-03-23T08:58:10.735Z,14.10
2018-03-23T09:00:38.128Z,12.90
2018-03-23T09:03:05.536Z,14.00
2018-03-23T09:05:32.929Z,13.70
2018-03-23T09:08:00.328Z,14.23
2018-03-23T09:10:27.735Z,14.83
2018-03-23T09:12:55.132Z,13.77
2018-03-23T09:15:22.524Z,13.00
2018-03-23T09:17:49.928Z,14.30
2018-03-23T09:20:17.320Z,13.60
2018-03-23T09:22:44.721Z,14.10
2018-03-23T09:25:12.119Z,15.73
2018-03-23T09:27:39.513Z,14.00
2018-03-23T09:30:06.915Z,14.00
2018-03-23T09:32:34.319Z,13.90
2018-03-23T09:35:01.714Z,13.43
2018-03-23T09:37:29.109Z,13.80
2018-03-23T09:39:56.515Z,12.43
2018-03-23T09:42:23.904Z,13.30
2018-03-23T09:44:51.299Z,13.30
2018-03-23T09:47:18.740Z,13.90
2018-03-23T09:49:46.128Z,13.80
2018-03-23T09:52:13.523Z,13.40
2018-03-23T09:54:40.931Z,12.77
2018-03-23T09:57:08.372Z,13.70
2018-03-23T09:59:35.712Z,13.10
2018-03-23T10:02:03.120Z,11.30
2018-03-23T10:04:30.520Z,12.90
2018-03-23T10:06:57.924Z,12.50
2018-03-23T10:09:25.338Z,12.50
2018-03-23T10:11:52.732Z,12.10
2018-03-23T10:14:20.129Z,11.33
2018-03-23T10:16:47.538Z,12.30
2018-03-23T10:19:14.935Z,13.90
2018-03-23T10:21:42.338Z,13.17
2018-03-23T10:24:09.747Z,12.83
2018-03-23T10:26:37.143Z,15.03
2018-03-23T10:29:04.586Z,13.00
2018-03-23T10:31:31.945Z,13.93
2018-03-23T10:33:59.335Z,14.00
2018-03-23T10:36:26.727Z,14.57
2018-03-23T10:38:54.131Z,14.40
2018-03-23T10:41:21.529Z,13.60
2018-03-23T10:43:48.928Z,14.20
2018-03-23T10:46:16.327Z,14.80
2018-03-23T10:48:43.728Z,15.60
2018-03-23T10:51:11.115Z,13.70
2018-03-23T10:53:38.523Z,14.23
2018-03-23T10:56:05.923Z,13.80
2018-03-23T10:58:33.598Z,15.10
2018-03-23T11:01:06.403Z,16.33
2018-03-23T11:03:33.795Z,15.07
2018-03-23T11:06:01.183Z,14.97
2018-03-23T11:08:28.595Z,14.20
2018-03-23T11:10:55.988Z,15.30
2018-03-23T11:13:23.392Z,15.17
2018-03-23T11:15:50.791Z,16.33
2018-03-23T11:18:18.184Z,15.20
2018-03-23T11:20:45.575Z,15.10
2018-03-23T11:23:12.996Z,12.40
2018-03-23T11:25:40.382Z,13.50
2018-03-23T11:28:07.784Z,13.27
2018-03-23T11:30:35.188Z,10.83
2018-03-23T11:33:02.601Z,9.70
2018-03-23T11:35:29.980Z,11.27
2018-03-23T11:37:57.388Z,11.93
2018-03-23T11:40:24.776Z,10.47
2018-03-23T11:42:52.168Z,10.40
2018-03-23T11:45:19.571Z,12.00
2018-03-23T11:47:46.963Z,9.40
2018-03-23T11:50:14.351Z,9.33
2018-03-23T11:52:41.755Z,10.90
2018-03-23T11:55:09.151Z,10.60
2018-03-23T11:57:36.550Z,11.63
2018-03-23T12:00:03.955Z,12.40
2018-03-23T12:02:31.347Z,14.33
2018-03-23T12:04:58.739Z,11.97
2018-03-23T12:07:26.147Z,13.30
2018-03-23T12:09:53.540Z,13.57
2018-03-23T12:12:20.932Z,14.13
2018-03-23T12:14:48.336Z,15.40
2018-03-23T12:17:15.743Z,18.63
2018-03-23T12:19:43.133Z,19.37
2018-03-23T12:22:10.538Z,17.90
2018-03-23T12:24:37.941Z,18.37
2018-03-23T12:27:05.331Z,17.70
2018-03-23T12:29:32.762Z,16.43
2018-03-23T12:32:00.140Z,18.67
2018-03-23T12:34:27.535Z,18.27
2018-03-23T12:36:54.939Z,18.97
2018-03-23T12:39:22.342Z,17.37
2018-03-23T12:41:49.732Z,18.53
2018-03-23T12:44:17.139Z,17.57
2018-03-23T12:46:44.531Z,17.90
2018-03-23T12:49:11.920Z,16.17
2018-03-23T12:51:39.327Z,17.80
2018-03-23T12:54:06.720Z,17.80
2018-03-23T12:56:34.112Z,16.33
2018-03-23T12:59:01.523Z,16.67
2018-03-23T13:01:28.913Z,17.00
2018-03-23T13:03:56.315Z,18.17
2018-03-23T13:06:23.721Z,18.90
2018-03-23T13:08:51.121Z,17.60
2018-03-23T13:11:18.508Z,18.03
2018-03-23T13:13:45.922Z,18.00
2018-03-23T13:16:13.308Z,17.07
2018-03-23T13:18:40.714Z,17.87
2018-03-23T13:21:08.113Z,19.17
2018-03-23T13:23:35.508Z,18.03
2018-03-23T13:26:02.918Z,18.67
2018-03-23T13:28:30.320Z,21.17
2018-03-23T13:30:57.716Z,22.00
2018-03-23T13:33:25.110Z,21.37
2018-03-23T13:35:52.527Z,20.83
2018-03-23T13:38:19.916Z,19.67
2018-03-23T13:40:47.314Z,22.60
2018-03-23T13:43:14.724Z,20.40
2018-03-23T13:45:42.125Z,18.70
2018-03-23T13:48:09.522Z,20.33
2018-03-23T13:50:36.927Z,17.93
2018-03-23T13:53:04.323Z,17.00
2018-03-23T13:55:31.720Z,17.97
2018-03-23T13:57:59.131Z,17.53
2018-03-23T14:00:32.197Z,16.60
2018-03-23T14:02:59.595Z,17.57
2018-03-23T14:05:26.991Z,16.73
2018-03-23T14:07:54.398Z,16.27
2018-03-23T14:10:21.805Z,16.53
2018-03-23T14:12:49.203Z,17.40
2018-03-23T14:15:16.610Z,17.30
2018-03-23T14:17:44.025Z,17.60
2018-03-23T14:20:11.407Z,15.00
2018-03-23T14:22:38.804Z,16.43
2018-03-23T14:25:06.250Z,16.90
2018-03-23T14:27:33.636Z,17.80
2018-03-23T14:30:01.038Z,16.57
2018-03-23T14:32:28.452Z,15.20
2018-03-23T14:34:55.845Z,15.47
2018-03-23T14:37:23.231Z,17.20
2018-03-23T14:39:50.644Z,16.60
2018-03-23T14:42:18.045Z,16.90
2018-03-23T14:44:45.442Z,16.90
2018-03-23T14:47:12.848Z,16.63
2018-03-23T14:49:40.245Z,19.23
2018-03-23T14:52:07.636Z,16.30
2018-03-23T14:54:35.052Z,16.60
2018-03-23T14:57:02.450Z,16.37
2018-03-23T14:59:36.276Z,16.30
2018-03-23T15:02:03.676Z,16.40
2018-03-23T15:04:31.077Z,15.67
2018-03-23T15:06:58.491Z,15.93
2018-03-23T15:09:25.889Z,15.63
2018-03-23T15:11:53.288Z,18.77
2018-03-23T15:14:20.700Z,20.53
2018-03-23T15:16:48.096Z,18.80
2018-03-23T15:19:15.487Z,18.10
2018-03-23T15:21:42.957Z,20.40
2018-03-23T15:24:10.296Z,18.90
2018-03-23T15:26:37.732Z,20.20
2018-03-23T15:29:05.130Z,18.40
2018-03-23T15:31:32.528Z,19.90
2018-03-23T15:33:59.924Z,18.17
2018-03-23T15:36:27.333Z,19.03
2018-03-23T15:38:54.733Z,22.23
2018-03-23T15:41:22.131Z,21.90
2018-03-23T15:43:49.780Z,20.57
2018-03-23T15:46:17.183Z,19.53
2018-03-23T15:48:44.580Z,21.40
2018-03-23T15:51:11.991Z,17.63
2018-03-23T15:53:39.387Z,19.00
2018-03-23T15:56:06.781Z,20.93
2018-03-23T15:58:34.220Z,21.73
2018-03-23T16:01:01.600Z,20.23
2018-03-23T16:03:29.000Z,20.03
2018-03-23T16:05:56.415Z,19.93
2018-03-23T16:08:23.808Z,20.20
2018-03-23T16:10:51.208Z,21.10
2018-03-23T16:13:18.678Z,19.10
2018-03-23T16:15:46.019Z,19.70
2018-03-23T16:18:13.409Z,20.57
2018-03-23T16:20:40.813Z,20.20
2018-03-23T16:23:08.209Z,19.93
2018-03-23T16:25:35.602Z,18.83
2018-03-23T16:28:03.008Z,19.40
2018-03-23T16:30:30.503Z,20.20
2018-03-23T16:32:57.889Z,19.70
2018-03-23T16:35:25.300Z,18.40
2018-03-23T16:37:53.695Z,19.90
2018-03-23T16:40:21.092Z,18.83
2018-03-23T16:42:48.505Z,20.77
2018-03-23T16:45:15.897Z,21.47
2018-03-23T16:47:43.301Z,21.77
2018-03-23T16:50:10.816Z,21.23
2018-03-23T16:52:38.207Z,20.73
2018-03-23T16:55:05.600Z,21.80
2018-03-23T16:57:33.017Z,21.43
2018-03-23T17:00:00.456Z,20.50
2018-03-23T17:02:27.912Z,21.30
2018-03-23T17:04:55.336Z,20.93
2018-03-23T17:07:22.735Z,19.13
2018-03-23T17:09:50.132Z,21.23
2018-03-23T17:12:17.535Z,19.50
2018-03-23T17:14:44.928Z,20.07
2018-03-23T17:17:12.332Z,19.00
2018-03-23T17:19:39.751Z,19.50
2018-03-23T17:22:07.151Z,20.03
2018-03-23T17:24:34.562Z,19.87
2018-03-23T17:27:01.988Z,20.23
2018-03-23T17:29:29.380Z,19.13
2018-03-23T17:31:56.775Z,19.93
2018-03-23T17:34:24.197Z,20.47
2018-03-23T17:36:51.585Z,20.03
2018-03-23T17:39:18.972Z,20.17
2018-03-23T17:41:46.383Z,20.27
2018-03-23T17:44:13.789Z,20.03
2018-03-23T17:46:41.193Z,21.73
2018-03-23T17:49:08.601Z,21.90
2018-03-23T17:51:35.996Z,19.87
2018-03-23T17:54:03.395Z,21.23
2018-03-23T17:56:30.809Z,23.10
2018-03-23T17:58:58.212Z,23.80
2018-03-23T18:01:25.629Z,23.20
2018-03-23T18:03:53.037Z,24.10
2018-03-23T18:06:20.470Z,22.27
2018-03-23T18:08:47.827Z,25.53
2018-03-23T18:11:15.252Z,24.80
2018-03-23T18:13:42.660Z,23.93
2018-03-23T18:16:10.083Z,24.73
2018-03-23T18:18:37.476Z,25.30
2018-03-23T18:21:04.888Z,25.20
2018-03-23T18:23:32.302Z,23.53
2018-03-23T18:25:59.753Z,23.27
2018-03-23T18:28:27.088Z,24.37
2018-03-23T18:30:54.497Z,25.10
2018-03-23T18:33:21.912Z,26.40
2018-03-23T18:35:49.305Z,26.57
2018-03-23T18:38:16.701Z,27.07
2018-03-23T18:40:44.115Z,27.73
2018-03-23T18:43:11.503Z,27.30
2018-03-23T18:45:38.899Z,27.43
2018-03-23T18:48:06.312Z,26.27
2018-03-23T18:50:33.703Z,26.00
2018-03-23T18:53:01.100Z,25.53
2018-03-23T18:55:28.511Z,26.27
2018-03-23T18:57:55.904Z,27.10
2018-03-23T19:00:23.308Z,27.13
2018-03-23T19:02:50.721Z,27.33
2018-03-23T19:05:18.108Z,26.63
2018-03-23T19:07:45.508Z,27.63
2018-03-23T19:10:12.912Z,26.00
2018-03-23T19:12:40.310Z,25.77
2018-03-23T19:15:07.700Z,26.47
2018-03-23T19:17:35.109Z,25.80
2018-03-23T19:20:02.515Z,27.37
2018-03-23T19:22:29.912Z,25.63
2018-03-23T19:24:57.312Z,25.50
2018-03-23T19:27:24.709Z,23.00
2018-03-23T19:29:52.108Z,23.77
2018-03-23T19:32:19.527Z,24.53
2018-03-23T19:34:46.912Z,25.90
2018-03-23T19:37:14.304Z,25.53
2018-03-23T19:39:41.715Z,25.40
2018-03-23T19:42:09.136Z,24.90
2018-03-23T19:44:36.525Z,27.00
2018-03-23T19:47:03.940Z,26.90
2018-03-23T19:49:31.349Z,27.33
2018-03-23T19:51:58.740Z,26.20
2018-03-23T19:54:26.147Z,27.60
2018-03-23T19:56:53.547Z,27.60
2018-03-23T19:59:20.958Z,28.20
2018-03-23T20:01:48.360Z,29.60
2018-03-23T20:04:15.756Z,27.57
2018-03-23T20:06:43.157Z,32.50
2018-03-23T20:09:10.563Z,29.73
2018-03-23T20:11:37.964Z,30.73
2018-03-23T20:14:11.357Z,31.97
2018-03-23T20:16:38.813Z,30.80
2018-03-23T20:19:06.156Z,33.47
2018-03-23T20:21:33.560Z,32.03
2018-03-23T20:24:06.433Z,32.40
2018-03-23T20:26:33.840Z,30.23
2018-03-23T20:29:01.236Z,31.63
2018-03-23T20:31:34.155Z,31.57
2018-03-23T20:34:01.556Z,30.43
2018-03-23T20:36:28.948Z,35.67
2018-03-23T20:38:56.360Z,32.60
2018-03-23T20:41:23.757Z,33.57
2018-03-23T20:43:51.157Z,35.80
2018-03-23T20:46:19.059Z,35.60
2018-03-23T20:48:46.453Z,37.20
2018-03-23T20:51:13.844Z,35.43
2018-03-23T20:53:41.269Z,35.42
2018-03-23T20:56:08.677Z,34.33
2018-03-23T20:58:36.072Z,37.13
2018-03-23T21:01:03.480Z,35.40
2018-03-23T21:03:30.882Z,35.50
2018-03-23T21:05:58.271Z,35.87
2018-03-23T21:08:25.684Z,36.57
2018-03-23T21:10:53.085Z,34.20
2018-03-23T21:13:20.480Z,37.10
2018-03-23T21:15:47.895Z,35.53
2018-03-23T21:18:15.291Z,37.07
2018-03-23T21:20:42.684Z,36.63
2018-03-23T21:23:10.096Z,38.07
2018-03-23T21:25:37.493Z,35.70
2018-03-23T21:28:04.894Z,37.83
2018-03-23T21:30:32.307Z,39.67
2018-03-23T21:32:59.705Z,37.73
2018-03-23T21:35:27.112Z,37.30
2018-03-23T21:37:54.523Z,37.83
2018-03-23T21:40:21.920Z,38.13
2018-03-23T21:42:49.335Z,38.57
2018-03-23T21:45:16.743Z,36.13
2018-03-23T21:47:44.139Z,36.77
2018-03-23T21:50:11.547Z,37.10
2018-03-23T21:52:38.984Z,38.67
2018-03-23T21:55:06.380Z,37.93
2018-03-23T21:57:33.791Z,37.93
2018-03-23T22:00:01.213Z,38.30
2018-03-23T22:02:28.633Z,38.93
2018-03-23T22:04:56.037Z,38.13
2018-03-23T22:07:23.456Z,37.37
2018-03-23T22:09:50.852Z,36.93
2018-03-23T22:12:18.250Z,38.27
2018-03-23T22:14:45.652Z,37.60
2018-03-23T22:17:13.047Z,37.03
2018-03-23T22:19:40.444Z,36.90
2018-03-23T22:22:07.847Z,35.13
2018-03-23T22:24:35.249Z,34.80
2018-03-23T22:27:02.650Z,37.57
2018-03-23T22:29:30.057Z,36.40
2018-03-23T22:31:57.443Z,35.53
2018-03-23T22:34:24.842Z,38.97
2018-03-23T22:36:52.251Z,34.33
2018-03-23T22:39:19.643Z,37.40
2018-03-23T22:41:47.036Z,36.93
2018-03-23T22:44:14.454Z,35.27
2018-03-23T22:46:41.847Z,34.57
2018-03-23T22:49:09.241Z,34.17
2018-03-23T22:51:36.652Z,37.57
2018-03-23T22:54:04.052Z,34.10
2018-03-23T22:56:31.445Z,36.30
2018-03-23T22:58:58.880Z,34.63
2018-03-23T23:01:26.283Z,39.27
2018-03-23T23:03:53.684Z,36.10
2018-03-23T23:06:21.100Z,37.55
2018-03-23T23:08:48.500Z,37.63
2018-03-23T23:11:15.895Z,37.10
2018-03-23T23:13:43.307Z,36.50
2018-03-23T23:16:10.715Z,35.92
2018-03-23T23:18:38.119Z,35.90
2018-03-23T23:21:05.548Z,36.05
2018-03-23T23:23:32.936Z,37.43
2018-03-23T23:26:00.340Z,35.95
2018-03-23T23:28:27.752Z,37.87
2018-03-23T23:30:55.157Z,37.83
2018-03-23T23:33:22.559Z,34.50
2018-03-23T23:35:49.987Z,37.85
2018-03-23T23:38:17.402Z,37.88
2018-03-23T23:40:44.819Z,38.73
2018-03-23T23:43:12.224Z,37.90
2018-03-23T23:45:39.644Z,38.85
2018-03-23T23:48:07.049Z,37.33
2018-03-23T23:50:34.471Z,38.60
2018-03-23T23:53:01.882Z,38.30
2018-03-23T23:55:29.301Z,36.63
2018-03-23T23:57:56.744Z,37.83
